Yasemin — 9HA2114 — position and weather

sailwx.info

Track history (hours):
 
Tides and Currents Weather Stations Pressure Air Temp Water Temp Dewpoint Dewpoint Depression Visibility Wind Speed Wind Dir Waves Ship Positions

Yasemin

Last reported at 2014-Oct-18 09:33 UTC. Time now 2014-Oct-25 11:12 UTC.
Position N 40°58' E 028°58'.

Length 105 m; draft 4.6 m.

Type: Cargo ship. MMSI: 249988000.

Date/timePositionNaut miles runAvg speedWind from/ knotsBaromVisibWave heightAir tempDewpointWater temp
2014-Oct-18 09:33N 40°58' E 028°58'143 4.8
2014-Oct-17 03:28N 40°00' E 026°06'1512.4
2014-Oct-17 02:17N 39°54' E 025°49'3613.0
2014-Oct-16 23:33N 39°47' E 025°04'1414.1
2014-Oct-16 22:33N 39°48' E 024°46'1413.5
2014-Oct-16 21:33N 39°49' E 024°28'1413.9
2014-Oct-16 20:33N 39°51' E 024°10'  
2014-Oct-09 08:32N 37°56' E 024°32'1511.0
2014-Oct-09 07:08N 37°45' E 024°18'810.6
2014-Oct-09 06:23N 37°38' E 024°14'910.3
2014-Oct-09 05:31N 37°30' E 024°07'  
Track history (hours):
 
Tides and Currents Weather Stations Pressure Air Temp Water Temp Dewpoint Dewpoint Depression Visibility Wind Speed Wind Dir Waves Ship Positions

Yasemin

Last reported at 2014-Oct-18 09:33 UTC. Time now 2014-Oct-25 11:12 UTC.
Position N 40°58' E 028°58'.

Length 105 m; draft 4.6 m.

Type: Cargo ship. MMSI: 249988000.

Date/timePositionNaut miles runAvg speedWind from/ knotsBaromVisibWave heightAir tempDewpointWater temp
2014-Oct-18 09:33N 40°58' E 028°58'143 4.8
2014-Oct-17 03:28N 40°00' E 026°06'1512.4
2014-Oct-17 02:17N 39°54' E 025°49'3613.0
2014-Oct-16 23:33N 39°47' E 025°04'1414.1
2014-Oct-16 22:33N 39°48' E 024°46'1413.5
2014-Oct-16 21:33N 39°49' E 024°28'1413.9
2014-Oct-16 20:33N 39°51' E 024°10'  
2014-Oct-09 08:32N 37°56' E 024°32'1511.0
2014-Oct-09 07:08N 37°45' E 024°18'810.6
2014-Oct-09 06:23N 37°38' E 024°14'910.3
2014-Oct-09 05:31N 37°30' E 024°07'  

Dump ship's entire track history